sensor_id;sensor_type;location;lat;lon;timestamp;pressure;altitude;pressure_sealevel;temperature;humidity
35655;BME280;21773;50.010;19.972;2023-02-02T00:01:25;97814.97;;;8.18;57.78
35655;BME280;21773;50.010;19.972;2023-02-02T00:04:30;97820.19;;;8.13;57.93
35655;BME280;21773;50.010;19.972;2023-02-02T00:07:34;97819.25;;;8.08;58.48
35655;BME280;21773;50.010;19.972;2023-02-02T00:10:37;97827.09;;;8.09;58.71
35655;BME280;21773;50.010;19.972;2023-02-02T00:13:42;97818.66;;;7.94;59.25
35655;BME280;21773;50.010;19.972;2023-02-02T00:16:47;97808.97;;;7.81;60.21
35655;BME280;21773;50.010;19.972;2023-02-02T00:19:51;97820.56;;;7.64;61.22
35655;BME280;21773;50.010;19.972;2023-02-02T00:22:54;97830.72;;;7.62;61.63
35655;BME280;21773;50.010;19.972;2023-02-02T00:25:58;97837.81;;;7.56;61.93
35655;BME280;21773;50.010;19.972;2023-02-02T00:29:02;97850.81;;;7.41;62.66
35655;BME280;21773;50.010;19.972;2023-02-02T00:32:06;97849.91;;;7.47;62.45
35655;BME280;21773;50.010;19.972;2023-02-02T00:35:09;97844.34;;;7.30;62.99
35655;BME280;21773;50.010;19.972;2023-02-02T00:38:13;97837.38;;;7.11;63.55
35655;BME280;21773;50.010;19.972;2023-02-02T00:41:16;97845.41;;;7.11;63.76
35655;BME280;21773;50.010;19.972;2023-02-02T00:44:21;97823.75;;;6.94;63.65
35655;BME280;21773;50.010;19.972;2023-02-02T00:47:57;97813.72;;;6.72;63.69
35655;BME280;21773;50.010;19.972;2023-02-02T00:51:00;97853.53;;;6.86;64.32
35655;BME280;21773;50.010;19.972;2023-02-02T00:54:03;97845.84;;;6.90;64.10
35655;BME280;21773;50.010;19.972;2023-02-02T00:57:09;97858.59;;;6.94;63.89
35655;BME280;21773;50.010;19.972;2023-02-02T01:00:17;97865.59;;;6.95;63.56
35655;BME280;21773;50.010;19.972;2023-02-02T01:03:21;97864.84;;;6.88;63.43
35655;BME280;21773;50.010;19.972;2023-02-02T01:06:25;97867.06;;;6.91;63.23
35655;BME280;21773;50.010;19.972;2023-02-02T01:09:28;97860.13;;;6.66;64.01
35655;BME280;21773;50.010;19.972;2023-02-02T01:12:31;97837.72;;;6.42;64.26
35655;BME280;21773;50.010;19.972;2023-02-02T01:15:37;97858.44;;;6.71;63.73
35655;BME280;21773;50.010;19.972;2023-02-02T01:18:41;97864.13;;;6.57;64.19
35655;BME280;21773;50.010;19.972;2023-02-02T01:21:44;97871.50;;;6.43;64.54
35655;BME280;21773;50.010;19.972;2023-02-02T01:24:47;97873.78;;;6.39;64.85
35655;BME280;21773;50.010;19.972;2023-02-02T01:27:51;97876.31;;;6.34;65.11
35655;BME280;21773;50.010;19.972;2023-02-02T01:30:56;97875.41;;;6.40;64.76
35655;BME280;21773;50.010;19.972;2023-02-02T01:34:00;97874.66;;;6.33;65.31
35655;BME280;21773;50.010;19.972;2023-02-02T01:37:04;97878.38;;;6.32;65.72
35655;BME280;21773;50.010;19.972;2023-02-02T01:40:09;97885.38;;;6.33;65.41
35655;BME280;21773;50.010;19.972;2023-02-02T01:43:21;97878.16;;;6.34;65.50
35655;BME280;21773;50.010;19.972;2023-02-02T01:46:27;97885.88;;;6.24;65.64
35655;BME280;21773;50.010;19.972;2023-02-02T01:49:32;97873.22;;;6.31;65.73
35655;BME280;21773;50.010;19.972;2023-02-02T01:52:36;97895.28;;;6.26;66.00
35655;BME280;21773;50.010;19.972;2023-02-02T01:55:41;97903.44;;;6.38;65.64
35655;BME280;21773;50.010;19.972;2023-02-02T01:58:45;97891.09;;;6.37;65.82
35655;BME280;21773;50.010;19.972;2023-02-02T02:01:51;97896.41;;;6.43;65.68
35655;BME280;21773;50.010;19.972;2023-02-02T02:04:59;97899.09;;;6.43;65.70
35655;BME280;21773;50.010;19.972;2023-02-02T02:08:09;97903.06;;;6.59;65.30
35655;BME280;21773;50.010;19.972;2023-02-02T02:11:14;97901.34;;;6.65;64.94
35655;BME280;21773;50.010;19.972;2023-02-02T02:14:17;97912.06;;;6.65;64.95
35655;BME280;21773;50.010;19.972;2023-02-02T02:17:55;97919.59;;;6.74;64.69
35655;BME280;21773;50.010;19.972;2023-02-02T02:25:16;97928.88;;;6.72;64.34
35655;BME280;21773;50.010;19.972;2023-02-02T02:32:25;97940.63;;;6.71;64.63
35655;BME280;21773;50.010;19.972;2023-02-02T02:35:34;97935.06;;;6.72;64.53
35655;BME280;21773;50.010;19.972;2023-02-02T02:38:43;97947.19;;;6.75;64.44
35655;BME280;21773;50.010;19.972;2023-02-02T02:41:54;97939.75;;;6.77;64.54
35655;BME280;21773;50.010;19.972;2023-02-02T02:45:02;97948.69;;;6.71;64.73
35655;BME280;21773;50.010;19.972;2023-02-02T02:48:09;97949.81;;;6.81;64.52
35655;BME280;21773;50.010;19.972;2023-02-02T02:51:38;97949.81;;;6.81;64.62
35655;BME280;21773;50.010;19.972;2023-02-02T02:54:46;97950.47;;;6.77;64.79
35655;BME280;21773;50.010;19.972;2023-02-02T02:58:04;97961.56;;;6.80;64.52
35655;BME280;21773;50.010;19.972;2023-02-02T03:01:13;97962.47;;;6.74;64.52
35655;BME280;21773;50.010;19.972;2023-02-02T03:04:27;97962.22;;;6.76;64.64
35655;BME280;21773;50.010;19.972;2023-02-02T03:07:41;97952.94;;;6.78;64.52
35655;BME280;21773;50.010;19.972;2023-02-02T03:10:46;97960.66;;;6.68;64.98
35655;BME280;21773;50.010;19.972;2023-02-02T03:13:49;97960.97;;;6.78;64.91
35655;BME280;21773;50.010;19.972;2023-02-02T03:16:53;97967.09;;;6.85;64.77
35655;BME280;21773;50.010;19.972;2023-02-02T03:19:57;97963.81;;;6.83;64.79
35655;BME280;21773;50.010;19.972;2023-02-02T03:23:01;97956.31;;;6.92;64.75
35655;BME280;21773;50.010;19.972;2023-02-02T03:26:05;97972.97;;;6.94;64.45
35655;BME280;21773;50.010;19.972;2023-02-02T03:29:09;97978.03;;;6.84;64.89
35655;BME280;21773;50.010;19.972;2023-02-02T03:32:12;97976.41;;;7.01;64.63
35655;BME280;21773;50.010;19.972;2023-02-02T03:35:17;97963.31;;;6.93;64.19
35655;BME280;21773;50.010;19.972;2023-02-02T03:38:21;97969.25;;;6.95;64.62
35655;BME280;21773;50.010;19.972;2023-02-02T03:41:24;97988.19;;;7.00;64.59
35655;BME280;21773;50.010;19.972;2023-02-02T03:44:28;97975.03;;;6.99;64.60
35655;BME280;21773;50.010;19.972;2023-02-02T03:47:31;97984.25;;;7.03;64.47
35655;BME280;21773;50.010;19.972;2023-02-02T03:50:37;97978.91;;;6.78;64.96
35655;BME280;21773;50.010;19.972;2023-02-02T03:53:41;97974.69;;;6.88;64.76
35655;BME280;21773;50.010;19.972;2023-02-02T03:56:48;97997.69;;;6.96;64.36
35655;BME280;21773;50.010;19.972;2023-02-02T03:59:51;97979.81;;;6.90;64.51
35655;BME280;21773;50.010;19.972;2023-02-02T04:02:55;97984.81;;;6.86;64.55
35655;BME280;21773;50.010;19.972;2023-02-02T04:06:00;97985.19;;;6.90;64.32
35655;BME280;21773;50.010;19.972;2023-02-02T04:09:04;97979.72;;;7.03;64.35
35655;BME280;21773;50.010;19.972;2023-02-02T04:12:07;97992.28;;;7.03;64.08
35655;BME280;21773;50.010;19.972;2023-02-02T04:15:10;97987.59;;;6.98;64.30
35655;BME280;21773;50.010;19.972;2023-02-02T04:18:14;97990.47;;;6.96;64.37
35655;BME280;21773;50.010;19.972;2023-02-02T04:21:18;97967.47;;;6.89;64.46
35655;BME280;21773;50.010;19.972;2023-02-02T04:24:22;97987.34;;;7.00;64.29
35655;BME280;21773;50.010;19.972;2023-02-02T04:27:26;97980.09;;;7.07;64.32
35655;BME280;21773;50.010;19.972;2023-02-02T04:30:32;97989.09;;;7.12;63.95
35655;BME280;21773;50.010;19.972;2023-02-02T04:33:35;97957.97;;;6.93;64.22
35655;BME280;21773;50.010;19.972;2023-02-02T04:36:40;97992.66;;;7.06;64.46
35655;BME280;21773;50.010;19.972;2023-02-02T04:39:43;97989.78;;;7.08;64.20
35655;BME280;21773;50.010;19.972;2023-02-02T04:42:46;97981.28;;;7.11;64.17
35655;BME280;21773;50.010;19.972;2023-02-02T04:45:54;97982.91;;;7.12;64.11
35655;BME280;21773;50.010;19.972;2023-02-02T04:48:57;97979.41;;;7.11;64.21
35655;BME280;21773;50.010;19.972;2023-02-02T04:52:02;97979.63;;;7.10;64.04
35655;BME280;21773;50.010;19.972;2023-02-02T04:55:06;97979.78;;;7.15;63.87
35655;BME280;21773;50.010;19.972;2023-02-02T04:58:10;97977.09;;;7.15;63.49
35655;BME280;21773;50.010;19.972;2023-02-02T05:01:16;97980.75;;;7.20;63.39
35655;BME280;21773;50.010;19.972;2023-02-02T05:04:19;97984.41;;;7.26;63.16
35655;BME280;21773;50.010;19.972;2023-02-02T05:07:24;97990.44;;;7.21;63.17
35655;BME280;21773;50.010;19.972;2023-02-02T05:10:27;97983.91;;;7.17;63.15
35655;BME280;21773;50.010;19.972;2023-02-02T05:13:31;97986.78;;;7.16;62.87
35655;BME280;21773;50.010;19.972;2023-02-02T05:16:34;97996.78;;;7.27;62.87
35655;BME280;21773;50.010;19.972;2023-02-02T05:19:37;97987.56;;;7.23;62.65
35655;BME280;21773;50.010;19.972;2023-02-02T05:22:42;97986.78;;;7.34;62.13
35655;BME280;21773;50.010;19.972;2023-02-02T05:25:50;97988.44;;;7.35;61.88
35655;BME280;21773;50.010;19.972;2023-02-02T05:28:55;97992.91;;;7.41;61.75
35655;BME280;21773;50.010;19.972;2023-02-02T05:31:58;97988.69;;;7.52;61.58
35655;BME280;21773;50.010;19.972;2023-02-02T05:35:02;97991.34;;;7.52;61.43
35655;BME280;21773;50.010;19.972;2023-02-02T05:38:07;97983.22;;;7.40;61.22
35655;BME280;21773;50.010;19.972;2023-02-02T05:41:10;97980.19;;;7.36;61.38
35655;BME280;21773;50.010;19.972;2023-02-02T05:44:14;97988.13;;;7.43;61.24
35655;BME280;21773;50.010;19.972;2023-02-02T05:47:18;97985.44;;;7.43;60.74
35655;BME280;21773;50.010;19.972;2023-02-02T05:50:21;97989.19;;;7.60;60.12
35655;BME280;21773;50.010;19.972;2023-02-02T05:53:37;97989.69;;;7.69;60.01
35655;BME280;21773;50.010;19.972;2023-02-02T05:56:40;97989.81;;;7.62;59.43
35655;BME280;21773;50.010;19.972;2023-02-02T05:59:43;97990.06;;;7.72;58.97
35655;BME280;21773;50.010;19.972;2023-02-02T06:02:48;97990.59;;;7.81;58.59
35655;BME280;21773;50.010;19.972;2023-02-02T06:05:51;97986.34;;;7.73;57.94
35655;BME280;21773;50.010;19.972;2023-02-02T06:08:56;97984.84;;;7.77;57.85
35655;BME280;21773;50.010;19.972;2023-02-02T06:11:59;97975.75;;;7.78;57.37
35655;BME280;21773;50.010;19.972;2023-02-02T06:15:03;97979.31;;;7.72;57.07
35655;BME280;21773;50.010;19.972;2023-02-02T06:18:06;97974.78;;;7.73;56.10
35655;BME280;21773;50.010;19.972;2023-02-02T06:21:10;97968.31;;;7.80;56.13
35655;BME280;21773;50.010;19.972;2023-02-02T06:24:14;97968.75;;;7.77;55.68
35655;BME280;21773;50.010;19.972;2023-02-02T06:27:18;97956.75;;;7.80;55.38
35655;BME280;21773;50.010;19.972;2023-02-02T06:30:21;97960.63;;;7.84;54.85
35655;BME280;21773;50.010;19.972;2023-02-02T06:33:25;97961.94;;;7.93;54.20
35655;BME280;21773;50.010;19.972;2023-02-02T06:36:28;97938.03;;;7.73;53.79
35655;BME280;21773;50.010;19.972;2023-02-02T06:39:33;97971.56;;;8.01;53.68
35655;BME280;21773;50.010;19.972;2023-02-02T06:42:36;97976.44;;;8.04;53.35
35655;BME280;21773;50.010;19.972;2023-02-02T06:45:39;97967.66;;;7.97;53.22
35655;BME280;21773;50.010;19.972;2023-02-02T06:48:43;97959.16;;;8.00;53.22
35655;BME280;21773;50.010;19.972;2023-02-02T06:51:46;97962.81;;;8.05;53.63
35655;BME280;21773;50.010;19.972;2023-02-02T06:54:51;97958.41;;;8.11;53.14
35655;BME280;21773;50.010;19.972;2023-02-02T06:57:55;97955.38;;;8.19;53.17
35655;BME280;21773;50.010;19.972;2023-02-02T07:01:03;97954.97;;;8.04;52.30
35655;BME280;21773;50.010;19.972;2023-02-02T07:04:07;97959.31;;;8.16;52.58
35655;BME280;21773;50.010;19.972;2023-02-02T07:07:10;97971.13;;;8.15;52.24
35655;BME280;21773;50.010;19.972;2023-02-02T07:10:16;97970.53;;;8.13;52.36
35655;BME280;21773;50.010;19.972;2023-02-02T07:13:40;97958.16;;;8.12;52.01
35655;BME280;21773;50.010;19.972;2023-02-02T07:16:43;97951.69;;;8.02;52.12
35655;BME280;21773;50.010;19.972;2023-02-02T07:19:46;97951.34;;;7.98;52.26
35655;BME280;21773;50.010;19.972;2023-02-02T07:22:50;97960.56;;;8.02;52.82
35655;BME280;21773;50.010;19.972;2023-02-02T07:26:03;97973.81;;;7.86;52.70
35655;BME280;21773;50.010;19.972;2023-02-02T07:29:07;97992.28;;;7.94;53.36
35655;BME280;21773;50.010;19.972;2023-02-02T07:32:14;97973.97;;;8.02;52.91
35655;BME280;21773;50.010;19.972;2023-02-02T07:35:17;97969.75;;;7.95;53.76
35655;BME280;21773;50.010;19.972;2023-02-02T07:38:20;97971.81;;;7.81;54.10
35655;BME280;21773;50.010;19.972;2023-02-02T07:41:25;97979.41;;;7.84;54.12
35655;BME280;21773;50.010;19.972;2023-02-02T07:44:29;97990.94;;;7.84;54.02
35655;BME280;21773;50.010;19.972;2023-02-02T07:47:32;97984.09;;;7.89;54.72
35655;BME280;21773;50.010;19.972;2023-02-02T07:50:35;97984.69;;;7.72;54.72
35655;BME280;21773;50.010;19.972;2023-02-02T07:53:42;97976.81;;;7.59;55.38
35655;BME280;21773;50.010;19.972;2023-02-02T07:56:49;97981.22;;;7.54;56.57
35655;BME280;21773;50.010;19.972;2023-02-02T07:59:53;97977.25;;;7.38;57.61
35655;BME280;21773;50.010;19.972;2023-02-02T08:02:56;97969.38;;;7.25;59.15
35655;BME280;21773;50.010;19.972;2023-02-02T08:06:00;97974.72;;;7.25;59.76
35655;BME280;21773;50.010;19.972;2023-02-02T08:09:06;97967.59;;;7.37;60.17
35655;BME280;21773;50.010;19.972;2023-02-02T08:12:11;97956.41;;;7.22;60.31
35655;BME280;21773;50.010;19.972;2023-02-02T08:15:14;97957.63;;;7.26;60.71
35655;BME280;21773;50.010;19.972;2023-02-02T08:18:18;97962.16;;;7.07;61.55
35655;BME280;21773;50.010;19.972;2023-02-02T08:21:21;97969.56;;;7.05;62.10
35655;BME280;21773;50.010;19.972;2023-02-02T08:24:25;97958.50;;;7.02;62.59
35655;BME280;21773;50.010;19.972;2023-02-02T08:27:29;97956.63;;;7.02;62.56
35655;BME280;21773;50.010;19.972;2023-02-02T08:30:33;97961.22;;;6.95;63.32
35655;BME280;21773;50.010;19.972;2023-02-02T08:33:37;97942.25;;;6.96;63.49
35655;BME280;21773;50.010;19.972;2023-02-02T08:36:41;97943.84;;;6.79;64.16
35655;BME280;21773;50.010;19.972;2023-02-02T08:39:44;97944.47;;;6.81;64.25
35655;BME280;21773;50.010;19.972;2023-02-02T08:42:53;97948.78;;;6.82;64.30
35655;BME280;21773;50.010;19.972;2023-02-02T08:45:56;97942.66;;;6.75;64.68
35655;BME280;21773;50.010;19.972;2023-02-02T08:49:14;97938.44;;;6.86;64.54
35655;BME280;21773;50.010;19.972;2023-02-02T08:52:17;97937.34;;;6.93;64.49
35655;BME280;21773;50.010;19.972;2023-02-02T08:55:20;97948.94;;;6.87;64.93
35655;BME280;21773;50.010;19.972;2023-02-02T08:58:26;97938.13;;;6.94;65.03
35655;BME280;21773;50.010;19.972;2023-02-02T09:01:32;97941.06;;;6.92;64.85
35655;BME280;21773;50.010;19.972;2023-02-02T09:04:35;97943.75;;;6.92;64.91
35655;BME280;21773;50.010;19.972;2023-02-02T09:07:39;97942.72;;;6.93;64.85
35655;BME280;21773;50.010;19.972;2023-02-02T09:10:43;97942.31;;;6.90;65.06
35655;BME280;21773;50.010;19.972;2023-02-02T09:13:53;97925.38;;;6.71;65.79
35655;BME280;21773;50.010;19.972;2023-02-02T09:16:57;97935.53;;;6.87;65.97
35655;BME280;21773;50.010;19.972;2023-02-02T09:20:00;97936.72;;;6.73;66.40
35655;BME280;21773;50.010;19.972;2023-02-02T09:23:05;97941.66;;;6.94;65.98
35655;BME280;21773;50.010;19.972;2023-02-02T09:26:10;97946.38;;;7.17;65.38
35655;BME280;21773;50.010;19.972;2023-02-02T09:29:16;97936.06;;;6.96;65.95
35655;BME280;21773;50.010;19.972;2023-02-02T09:32:20;97947.47;;;6.91;65.94
35655;BME280;21773;50.010;19.972;2023-02-02T09:35:26;97938.09;;;7.01;65.73
35655;BME280;21773;50.010;19.972;2023-02-02T09:38:35;97939.72;;;7.20;65.66
35655;BME280;21773;50.010;19.972;2023-02-02T09:42:08;97942.66;;;7.18;65.27
35655;BME280;21773;50.010;19.972;2023-02-02T09:45:22;97954.19;;;7.37;65.21
35655;BME280;21773;50.010;19.972;2023-02-02T09:48:33;97980.97;;;7.19;65.13
35655;BME280;21773;50.010;19.972;2023-02-02T09:51:45;97956.63;;;7.02;65.39
35655;BME280;21773;50.010;19.972;2023-02-02T09:54:56;97967.78;;;6.99;66.13
35655;BME280;21773;50.010;19.972;2023-02-02T09:58:05;97967.16;;;7.22;65.93
35655;BME280;21773;50.010;19.972;2023-02-02T10:01:15;97966.38;;;7.15;65.72
35655;BME280;21773;50.010;19.972;2023-02-02T10:04:23;97987.91;;;7.08;65.85
35655;BME280;21773;50.010;19.972;2023-02-02T10:07:33;97981.16;;;6.99;65.81
35655;BME280;21773;50.010;19.972;2023-02-02T10:10:41;97980.13;;;7.00;66.36
35655;BME280;21773;50.010;19.972;2023-02-02T10:13:47;97987.50;;;7.05;66.13
35655;BME280;21773;50.010;19.972;2023-02-02T10:16:54;98000.91;;;7.05;66.19
35655;BME280;21773;50.010;19.972;2023-02-02T10:20:02;98000.09;;;6.79;66.73
35655;BME280;21773;50.010;19.972;2023-02-02T10:23:22;98000.25;;;6.84;66.61
35655;BME280;21773;50.010;19.972;2023-02-02T10:26:35;98005.53;;;6.73;66.58
35655;BME280;21773;50.010;19.972;2023-02-02T10:29:46;98003.06;;;6.71;66.38
35655;BME280;21773;50.010;19.972;2023-02-02T10:33:00;98001.16;;;6.53;67.17
35655;BME280;21773;50.010;19.972;2023-02-02T10:36:13;98009.28;;;6.65;66.91
35655;BME280;21773;50.010;19.972;2023-02-02T10:39:29;98011.72;;;6.73;66.53
35655;BME280;21773;50.010;19.972;2023-02-02T10:42:48;98018.44;;;6.82;66.37
35655;BME280;21773;50.010;19.972;2023-02-02T10:46:15;98021.44;;;6.92;66.50
35655;BME280;21773;50.010;19.972;2023-02-02T10:49:26;98012.38;;;6.93;66.08
35655;BME280;21773;50.010;19.972;2023-02-02T10:52:32;98025.38;;;6.90;66.39
35655;BME280;21773;50.010;19.972;2023-02-02T10:55:41;98027.63;;;6.93;66.52
35655;BME280;21773;50.010;19.972;2023-02-02T10:58:51;98021.16;;;6.76;67.63
35655;BME280;21773;50.010;19.972;2023-02-02T11:01:57;98028.94;;;6.84;67.37
35655;BME280;21773;50.010;19.972;2023-02-02T11:05:23;98042.06;;;6.92;67.34
35655;BME280;21773;50.010;19.972;2023-02-02T11:08:45;98038.66;;;7.03;66.63
35655;BME280;21773;50.010;19.972;2023-02-02T11:11:53;98034.56;;;7.01;66.57
35655;BME280;21773;50.010;19.972;2023-02-02T11:15:03;98043.41;;;7.01;66.58
35655;BME280;21773;50.010;19.972;2023-02-02T11:18:24;98041.84;;;7.18;66.22
35655;BME280;21773;50.010;19.972;2023-02-02T11:21:31;98052.97;;;7.15;65.88
35655;BME280;21773;50.010;19.972;2023-02-02T11:24:43;98044.28;;;7.20;66.51
35655;BME280;21773;50.010;19.972;2023-02-02T11:27:47;98050.66;;;7.19;66.23
35655;BME280;21773;50.010;19.972;2023-02-02T11:30:51;98066.56;;;7.38;65.80
35655;BME280;21773;50.010;19.972;2023-02-02T11:34:07;98062.28;;;7.37;65.55
35655;BME280;21773;50.010;19.972;2023-02-02T11:37:14;98066.25;;;7.28;65.33
35655;BME280;21773;50.010;19.972;2023-02-02T11:40:28;98057.75;;;7.56;64.84
35655;BME280;21773;50.010;19.972;2023-02-02T11:43:35;98070.69;;;7.59;64.66
35655;BME280;21773;50.010;19.972;2023-02-02T11:46:42;98069.44;;;7.62;64.64
35655;BME280;21773;50.010;19.972;2023-02-02T11:49:50;98079.94;;;7.63;64.84
35655;BME280;21773;50.010;19.972;2023-02-02T11:53:00;98080.91;;;7.69;64.43
35655;BME280;21773;50.010;19.972;2023-02-02T11:56:08;98076.97;;;7.71;64.53
35655;BME280;21773;50.010;19.972;2023-02-02T11:59:27;98068.41;;;7.81;64.38
35655;BME280;21773;50.010;19.972;2023-02-02T12:02:31;98061.41;;;7.80;63.84
35655;BME280;21773;50.010;19.972;2023-02-02T12:05:36;98084.78;;;8.09;63.55
35655;BME280;21773;50.010;19.972;2023-02-02T12:08:41;98086.13;;;8.00;63.14
35655;BME280;21773;50.010;19.972;2023-02-02T12:11:52;98081.63;;;8.12;62.94
35655;BME280;21773;50.010;19.972;2023-02-02T12:15:08;98082.25;;;8.14;62.79
35655;BME280;21773;50.010;19.972;2023-02-02T12:18:29;98096.19;;;8.23;62.44
35655;BME280;21773;50.010;19.972;2023-02-02T12:21:43;98096.84;;;8.37;62.08
35655;BME280;21773;50.010;19.972;2023-02-02T12:24:54;98104.47;;;8.40;61.91
35655;BME280;21773;50.010;19.972;2023-02-02T12:28:04;98106.47;;;8.44;61.36
35655;BME280;21773;50.010;19.972;2023-02-02T12:31:18;98117.38;;;8.49;61.03
35655;BME280;21773;50.010;19.972;2023-02-02T12:34:33;98113.66;;;8.32;60.75
35655;BME280;21773;50.010;19.972;2023-02-02T12:37:47;98108.53;;;8.31;60.62
35655;BME280;21773;50.010;19.972;2023-02-02T12:41:17;98126.25;;;8.50;60.41
35655;BME280;21773;50.010;19.972;2023-02-02T12:44:31;98134.16;;;8.45;59.71
35655;BME280;21773;50.010;19.972;2023-02-02T12:47:43;98141.91;;;8.53;59.23
35655;BME280;21773;50.010;19.972;2023-02-02T12:50:59;98146.72;;;8.62;58.93
35655;BME280;21773;50.010;19.972;2023-02-02T12:54:20;98137.00;;;8.50;58.15
35655;BME280;21773;50.010;19.972;2023-02-02T12:57:58;98131.34;;;8.40;58.39
35655;BME280;21773;50.010;19.972;2023-02-02T13:01:13;98174.97;;;8.53;57.91
35655;BME280;21773;50.010;19.972;2023-02-02T13:04:31;98172.06;;;8.37;57.76
35655;BME280;21773;50.010;19.972;2023-02-02T13:07:57;98181.00;;;8.49;57.96
35655;BME280;21773;50.010;19.972;2023-02-02T13:11:07;98192.84;;;8.41;56.94
35655;BME280;21773;50.010;19.972;2023-02-02T13:14:35;98156.06;;;8.23;57.65
35655;BME280;21773;50.010;19.972;2023-02-02T13:17:42;98184.41;;;8.56;56.87
35655;BME280;21773;50.010;19.972;2023-02-02T13:20:49;98187.16;;;8.67;56.08
35655;BME280;21773;50.010;19.972;2023-02-02T13:23:55;98206.44;;;8.64;56.16
35655;BME280;21773;50.010;19.972;2023-02-02T13:27:03;98209.13;;;8.64;56.51
35655;BME280;21773;50.010;19.972;2023-02-02T13:30:19;98218.22;;;8.63;56.67
35655;BME280;21773;50.010;19.972;2023-02-02T13:33:29;98218.66;;;8.60;56.45
35655;BME280;21773;50.010;19.972;2023-02-02T13:36:34;98226.44;;;8.68;57.10
35655;BME280;21773;50.010;19.972;2023-02-02T13:39:43;98234.66;;;8.74;56.65
35655;BME280;21773;50.010;19.972;2023-02-02T13:42:52;98233.06;;;8.84;56.48
35655;BME280;21773;50.010;19.972;2023-02-02T13:46:07;98246.41;;;8.91;56.10
35655;BME280;21773;50.010;19.972;2023-02-02T13:49:18;98255.75;;;8.88;56.20
35655;BME280;21773;50.010;19.972;2023-02-02T13:52:35;98249.41;;;8.83;56.56
35655;BME280;21773;50.010;19.972;2023-02-02T13:55:55;98258.19;;;8.90;56.51
35655;BME280;21773;50.010;19.972;2023-02-02T13:59:14;98266.53;;;9.00;56.62
35655;BME280;21773;50.010;19.972;2023-02-02T14:02:28;98277.09;;;9.01;56.49
35655;BME280;21773;50.010;19.972;2023-02-02T14:05:37;98280.25;;;8.98;56.16
35655;BME280;21773;50.010;19.972;2023-02-02T14:08:47;98285.63;;;8.98;55.85
35655;BME280;21773;50.010;19.972;2023-02-02T14:11:56;98286.13;;;9.07;56.03
35655;BME280;21773;50.010;19.972;2023-02-02T14:15:00;98291.72;;;9.05;56.17
35655;BME280;21773;50.010;19.972;2023-02-02T14:18:06;98290.53;;;9.01;56.41
35655;BME280;21773;50.010;19.972;2023-02-02T14:21:09;98306.34;;;9.09;56.43
35655;BME280;21773;50.010;19.972;2023-02-02T14:24:37;98307.09;;;9.17;56.36
35655;BME280;21773;50.010;19.972;2023-02-02T14:27:59;98318.75;;;9.10;56.00
35655;BME280;21773;50.010;19.972;2023-02-02T14:31:50;98321.56;;;9.16;56.14
35655;BME280;21773;50.010;19.972;2023-02-02T14:34:56;98328.91;;;9.08;55.89
35655;BME280;21773;50.010;19.972;2023-02-02T14:38:03;98327.72;;;9.04;56.32
35655;BME280;21773;50.010;19.972;2023-02-02T14:41:15;98333.47;;;9.08;56.37
35655;BME280;21773;50.010;19.972;2023-02-02T14:45:05;98328.16;;;9.01;56.04
35655;BME280;21773;50.010;19.972;2023-02-02T14:48:14;98337.13;;;8.95;55.54
35655;BME280;21773;50.010;19.972;2023-02-02T14:51:21;98344.59;;;9.11;55.62
35655;BME280;21773;50.010;19.972;2023-02-02T14:54:35;98358.34;;;9.22;55.18
35655;BME280;21773;50.010;19.972;2023-02-02T14:57:40;98365.03;;;9.31;54.75
35655;BME280;21773;50.010;19.972;2023-02-02T15:00:54;98366.47;;;9.33;54.25
35655;BME280;21773;50.010;19.972;2023-02-02T15:04:23;98376.84;;;9.30;53.67
35655;BME280;21773;50.010;19.972;2023-02-02T15:07:52;98372.78;;;9.39;53.65
35655;BME280;21773;50.010;19.972;2023-02-02T15:11:01;98362.53;;;9.18;53.78
35655;BME280;21773;50.010;19.972;2023-02-02T15:14:29;98391.88;;;9.37;53.54
35655;BME280;21773;50.010;19.972;2023-02-02T15:17:46;98390.69;;;9.33;53.29
35655;BME280;21773;50.010;19.972;2023-02-02T15:20:59;98397.53;;;9.29;52.87
35655;BME280;21773;50.010;19.972;2023-02-02T15:24:12;98408.38;;;9.41;52.04
35655;BME280;21773;50.010;19.972;2023-02-02T15:27:19;98416.50;;;9.34;51.72
35655;BME280;21773;50.010;19.972;2023-02-02T15:30:27;98437.06;;;9.29;51.31
35655;BME280;21773;50.010;19.972;2023-02-02T15:33:37;98437.47;;;9.32;51.27
35655;BME280;21773;50.010;19.972;2023-02-02T15:36:42;98443.66;;;9.33;51.40
35655;BME280;21773;50.010;19.972;2023-02-02T15:39:50;98455.16;;;9.40;51.44
35655;BME280;21773;50.010;19.972;2023-02-02T15:42:57;98450.66;;;9.34;51.10
35655;BME280;21773;50.010;19.972;2023-02-02T15:46:05;98459.56;;;9.34;51.08
35655;BME280;21773;50.010;19.972;2023-02-02T15:49:27;98465.69;;;9.41;49.99
35655;BME280;21773;50.010;19.972;2023-02-02T15:52:44;98489.75;;;9.36;48.80
35655;BME280;21773;50.010;19.972;2023-02-02T15:55:49;98490.78;;;9.17;47.64
35655;BME280;21773;50.010;19.972;2023-02-02T15:58:54;98500.09;;;9.14;48.25
35655;BME280;21773;50.010;19.972;2023-02-02T16:02:13;98501.44;;;9.05;47.58
35655;BME280;21773;50.010;19.972;2023-02-02T16:05:39;98512.19;;;9.05;47.43
35655;BME280;21773;50.010;19.972;2023-02-02T16:08:44;98517.38;;;9.07;46.63
35655;BME280;21773;50.010;19.972;2023-02-02T16:11:49;98519.72;;;8.97;46.36
35655;BME280;21773;50.010;19.972;2023-02-02T16:14:53;98535.69;;;8.92;46.36
35655;BME280;21773;50.010;19.972;2023-02-02T16:17:58;98541.13;;;8.85;45.59
35655;BME280;21773;50.010;19.972;2023-02-02T16:21:08;98548.31;;;8.91;46.13
35655;BME280;21773;50.010;19.972;2023-02-02T16:24:19;98545.84;;;8.90;45.63
35655;BME280;21773;50.010;19.972;2023-02-02T16:27:26;98553.53;;;8.86;46.25
35655;BME280;21773;50.010;19.972;2023-02-02T16:30:33;98554.88;;;8.70;46.17
35655;BME280;21773;50.010;19.972;2023-02-02T16:33:41;98573.94;;;8.62;45.98
35655;BME280;21773;50.010;19.972;2023-02-02T16:37:02;98583.38;;;8.78;46.50
35655;BME280;21773;50.010;19.972;2023-02-02T16:40:21;98559.69;;;8.62;46.76
35655;BME280;21773;50.010;19.972;2023-02-02T16:43:29;98595.88;;;8.91;46.97
35655;BME280;21773;50.010;19.972;2023-02-02T16:46:42;98602.69;;;8.93;46.56